Time;durP1;ratioP1;P1;durP2;ratioP2;P2;SDS_P1;SDS_P2;PMS_P1;PMS_P2;Temp;Humidity;BMP_temperature;BMP_pressure;BME280_temperature;BME280_humidity;BME280_pressure;Samples;Min_cycle;Max_cycle;Signal;HPM_P1;HPM_P2
2022/02/08 00:02:01;;;;;;;6.53;0.98;;;25.60;14.70;;;;;;5063119;28;20097;-59
2022/02/08 00:04:30;;;;;;;2.72;0.70;;;25.50;15.30;;;;;;5067877;28;20093;-65
2022/02/08 00:06:57;;;;;;;6.40;1.10;;;25.30;15.10;;;;;;5068062;28;20072;-62
2022/02/08 00:09:25;;;;;;;4.88;0.60;;;25.20;15.60;;;;;;5034342;28;20076;-62
2022/02/08 00:11:52;;;;;;;8.75;1.50;;;25.10;15.50;;;;;;5068152;28;20092;-63
2022/02/08 00:14:18;;;;;;;3.40;0.70;;;25.10;15.60;;;;;;5068089;28;20081;-62
2022/02/08 00:16:45;;;;;;;1.90;0.70;;;25.00;15.30;;;;;;5067346;28;20100;-65
2022/02/08 00:19:11;;;;;;;3.58;0.70;;;24.90;15.00;;;;;;5068465;28;20081;-64
2022/02/08 00:21:38;;;;;;;1.05;0.90;;;24.90;15.10;;;;;;5067916;28;20489;-61
2022/02/08 00:24:05;;;;;;;3.70;0.77;;;24.90;15.10;;;;;;5068590;28;20218;-64
2022/02/08 00:26:31;;;;;;;1.65;0.80;;;24.90;15.30;;;;;;5068132;28;20069;-64
2022/02/08 00:28:58;;;;;;;2.20;1.13;;;24.90;14.80;;;;;;5067800;28;20071;-62
2022/02/08 00:31:24;;;;;;;4.75;1.13;;;24.80;15.40;;;;;;5068181;28;20441;-64
2022/02/08 00:33:51;;;;;;;6.63;0.70;;;24.60;15.50;;;;;;5067765;28;20431;-63
2022/02/08 00:36:17;;;;;;;2.20;0.90;;;24.60;15.60;;;;;;5067839;28;20092;-60
2022/02/08 00:38:44;;;;;;;5.03;1.08;;;24.40;15.60;;;;;;5069314;28;20105;-62
2022/02/08 00:41:10;;;;;;;3.85;1.15;;;24.30;15.90;;;;;;5067648;28;20557;-62
2022/02/08 00:43:53;;;;;;;7.35;1.92;;;24.20;15.90;;;;;;5067945;28;20089;-61
2022/02/08 00:49:03;;;;;;;7.18;1.67;;;24.00;16.30;;;;;;5068268;28;20131;-60
2022/02/08 00:51:39;;;;;;;10.25;1.75;;;23.90;16.40;;;;;;5068484;28;20131;-61
2022/02/08 00:54:07;;;;;;;11.20;1.85;;;23.80;16.30;;;;;;5068907;28;20126;-57
2022/02/08 00:56:33;;;;;;;9.85;1.88;;;23.60;16.40;;;;;;5050540;28;20089;-63
2022/02/08 00:59:00;;;;;;;14.95;1.90;;;23.50;16.70;;;;;;5050906;28;20085;-62
2022/02/08 01:01:27;;;;;;;8.73;1.83;;;23.40;16.80;;;;;;5071642;28;20145;-61
2022/02/08 01:03:53;;;;;;;6.07;1.10;;;23.20;17.00;;;;;;5070451;28;20108;-63
2022/02/08 01:06:21;;;;;;;6.88;1.70;;;23.10;17.30;;;;;;5072744;28;20174;-66
2022/02/08 01:08:48;;;;;;;20.15;1.90;;;22.90;17.60;;;;;;5071594;28;20069;-62
2022/02/08 01:11:14;;;;;;;10.10;1.42;;;22.80;17.80;;;;;;5070791;28;20085;-61
2022/02/08 01:13:41;;;;;;;8.73;1.23;;;22.60;18.00;;;;;;5053821;28;20416;-63
2022/02/08 01:16:08;;;;;;;13.07;1.50;;;22.50;18.30;;;;;;5070554;28;20160;-63
2022/02/08 01:18:39;;;;;;;9.85;2.00;;;22.30;18.60;;;;;;5071365;28;20151;-61
2022/02/08 01:21:06;;;;;;;7.65;2.53;;;22.20;19.10;;;;;;5071821;28;20077;-63
2022/02/08 01:23:33;;;;;;;10.48;2.58;;;22.00;19.40;;;;;;5071208;28;20093;-61
2022/02/08 01:26:06;;;;;;;11.68;2.80;;;21.80;20.20;;;;;;5070875;28;20073;-64
2022/02/08 01:31:09;;;;;;;10.98;2.28;;;21.60;20.10;;;;;;5071989;28;20118;-62
2022/02/08 01:36:26;;;;;;;12.45;3.45;;;21.30;20.70;;;;;;5072212;28;20093;-61
2022/02/08 01:39:04;;;;;;;14.80;3.17;;;21.10;21.10;;;;;;5069833;28;20084;-63
2022/02/08 01:44:18;;;;;;;19.40;2.95;;;20.80;21.80;;;;;;5070706;28;20095;-61
2022/02/08 01:47:30;;;;;;;9.63;2.97;;;20.60;22.10;;;;;;5069938;28;20083;-61
2022/02/08 01:49:55;;;;;;;16.33;3.17;;;20.50;22.10;;;;;;5065414;28;20081;-64
2022/02/08 01:52:21;;;;;;;14.35;3.67;;;20.20;22.30;;;;;;5071336;28;20069;-62
2022/02/08 01:54:48;;;;;;;16.88;4.32;;;20.00;22.70;;;;;;5069903;28;20489;-61
2022/02/08 01:57:14;;;;;;;24.67;4.50;;;19.90;23.00;;;;;;5069155;28;20076;-61
2022/02/08 01:59:41;;;;;;;20.23;5.03;;;19.80;23.10;;;;;;5071170;28;20085;-64
2022/02/08 02:02:07;;;;;;;22.83;5.75;;;19.70;23.40;;;;;;5069476;28;20073;-62
2022/02/08 02:04:33;;;;;;;22.33;6.00;;;19.60;23.40;;;;;;5069613;28;20121;-63
2022/02/08 02:07:01;;;;;;;26.73;5.20;;;19.50;23.70;;;;;;5070211;28;20077;-64
2022/02/08 02:09:28;;;;;;;22.98;5.03;;;19.30;23.80;;;;;;5069056;28;20073;-63
2022/02/08 02:11:56;;;;;;;23.58;4.25;;;19.30;24.30;;;;;;5069994;28;20089;-64
2022/02/08 02:14:23;;;;;;;15.95;3.92;;;19.20;24.70;;;;;;5069967;28;20077;-61
2022/02/08 02:16:56;;;;;;;12.57;3.63;;;19.10;24.50;;;;;;5071078;28;20108;-61
2022/02/08 02:19:26;;;;;;;15.82;3.10;;;19.10;24.40;;;;;;5070716;28;20076;-61
2022/02/08 02:21:54;;;;;;;20.25;2.83;;;19.10;24.40;;;;;;5054855;28;20083;-65
2022/02/08 02:24:21;;;;;;;6.75;2.17;;;19.00;24.40;;;;;;5069542;28;20341;-64
2022/02/08 02:26:47;;;;;;;16.67;2.75;;;18.90;24.50;;;;;;5069271;28;20128;-63
2022/02/08 02:29:15;;;;;;;16.23;3.25;;;18.80;24.60;;;;;;5069648;28;20069;-62
2022/02/08 02:31:43;;;;;;;17.98;2.95;;;18.80;24.70;;;;;;5069709;28;20434;-62
2022/02/08 02:34:10;;;;;;;15.82;3.35;;;18.70;24.80;;;;;;5068717;28;20442;-59
2022/02/08 02:36:40;;;;;;;18.75;2.83;;;18.60;25.00;;;;;;5069323;28;20531;-61
2022/02/08 02:39:07;;;;;;;22.80;3.50;;;18.60;25.50;;;;;;5035918;28;20087;-60
2022/02/08 02:41:40;;;;;;;33.13;3.58;;;18.50;25.00;;;;;;5068049;28;20105;-60
2022/02/08 02:44:09;;;;;;;21.45;3.58;;;18.40;25.20;;;;;;5052099;28;20089;-61
2022/02/08 02:46:36;;;;;;;19.73;3.45;;;18.30;25.50;;;;;;5068307;28;20076;-63
2022/02/08 02:49:03;;;;;;;16.67;3.92;;;18.20;25.60;;;;;;5069303;28;20095;-61
2022/02/08 02:51:30;;;;;;;18.50;4.40;;;18.10;25.90;;;;;;5069990;28;20073;-60
2022/02/08 02:53:58;;;;;;;37.30;5.68;;;18.00;26.00;;;;;;5068429;28;20115;-63
2022/02/08 02:56:25;;;;;;;40.42;6.75;;;18.00;26.40;;;;;;5070481;28;20123;-59
2022/02/08 02:58:58;;;;;;;32.47;6.22;;;17.90;26.40;;;;;;5068623;28;20088;-58
2022/02/08 03:17:56;;;;;;;38.17;9.65;;;17.40;27.40;;;;;;5070258;28;20227;-60
2022/02/08 03:20:23;;;;;;;36.55;8.70;;;17.20;27.30;;;;;;5069264;28;20129;-59
2022/02/08 03:22:49;;;;;;;37.10;9.07;;;17.20;27.60;;;;;;5068950;28;20089;-60
2022/02/08 03:25:16;;;;;;;;;;;17.00;27.50;;;;;;5069854;28;20095;-63
2022/02/08 03:27:42;;;;;;;34.13;10.50;;;17.00;27.50;;;;;;5069690;28;19957;-61
2022/02/08 03:30:09;;;;;;;33.97;9.50;;;16.80;27.80;;;;;;5070029;28;20073;-63
2022/02/08 03:32:36;;;;;;;33.85;7.68;;;16.80;28.00;;;;;;5070134;28;20065;-65
2022/02/08 03:35:02;;;;;;;;;;;16.80;28.00;;;;;;5069202;28;20099;-61
2022/02/08 03:37:31;;;;;;;29.15;6.15;;;16.80;28.50;;;;;;5050943;28;19957;-63
2022/02/08 03:40:04;;;;;;;34.83;7.00;;;16.80;28.70;;;;;;5069566;28;20653;-61
2022/02/08 03:42:37;;;;;;;25.10;5.05;;;16.80;28.40;;;;;;5050051;28;20450;-59
2022/02/08 03:45:07;;;;;;;29.70;5.13;;;16.70;28.40;;;;;;5067393;28;20073;-62
2022/02/08 03:47:35;;;;;;;24.98;5.45;;;16.60;28.30;;;;;;5052218;28;20099;-60
2022/02/08 03:50:03;;;;;;;28.52;5.25;;;16.60;28.60;;;;;;5068624;28;20088;-58
2022/02/08 03:52:30;;;;;;;24.58;4.63;;;16.50;28.50;;;;;;5070113;28;20069;-61
2022/02/08 03:54:57;;;;;;;21.00;5.35;;;16.40;28.50;;;;;;5069656;28;20069;-60
2022/02/08 03:57:25;;;;;;;40.30;7.78;;;16.30;28.70;;;;;;5067850;28;20097;-61
2022/02/08 03:59:52;;;;;;;37.05;10.10;;;16.30;28.70;;;;;;5069505;28;20759;-64
2022/02/08 04:02:32;;;;;;;31.02;9.48;;;16.30;28.80;;;;;;5068649;28;20172;-57
2022/02/08 04:05:19;;;;;;;31.83;8.18;;;16.30;28.80;;;;;;5068009;28;20069;-63
2022/02/08 04:07:51;;;;;;;27.25;8.52;;;16.30;28.90;;;;;;5067942;28;20089;-62
2022/02/08 04:10:26;;;;;;;25.80;8.13;;;16.20;28.70;;;;;;5069397;28;20146;-61
2022/02/08 04:16:13;;;;;;;24.90;5.72;;;16.10;29.00;;;;;;5028948;28;20078;-63
2022/02/08 04:18:51;;;;;;;24.48;6.43;;;16.00;28.80;;;;;;5029564;28;20116;-62
2022/02/08 04:32:23;;;;;;;20.15;3.38;;;15.70;30.20;;;;;;5032440;28;20084;-62
2022/02/08 04:34:59;;;;;;;27.35;4.43;;;15.70;30.10;;;;;;5027279;28;20098;-61
2022/02/08 04:42:32;;;;;;;23.20;4.38;;;15.50;31.00;;;;;;5039936;28;20078;-63
2022/02/08 04:47:33;;;;;;;29.85;5.25;;;15.40;30.90;;;;;;5067046;28;20470;-62
2022/02/08 04:49:59;;;;;;;23.15;5.32;;;15.30;30.70;;;;;;5071886;28;20092;-61
2022/02/08 04:52:28;;;;;;;25.45;5.28;;;15.30;30.70;;;;;;5073530;28;20187;-59
2022/02/08 05:26:29;;;;;;;;;;;15.00;31.80;;;;;;5073006;28;20064;-64
2022/02/08 05:28:05;;;;;;;24.02;6.75;;;14.60;33.10;;;;;;5071192;28;20134;-63
2022/02/08 05:43:43;;;;;;;41.92;9.95;;;14.60;32.40;;;;;;5030131;28;20179;-62
2022/02/08 05:48:48;;;;;;;152.27;15.80;;;14.50;32.60;;;;;;5029804;28;20224;-64
2022/02/08 05:51:19;;;;;;;65.25;9.98;;;14.50;33.10;;;;;;5030289;28;20097;-63
2022/02/08 05:53:45;;;;;;;44.38;9.10;;;14.60;33.00;;;;;;5030303;28;20074;-62
2022/02/08 05:56:14;;;;;;;38.30;8.60;;;14.50;32.50;;;;;;5029722;28;20070;-66
2022/02/08 05:58:43;;;;;;;44.10;8.02;;;14.40;32.50;;;;;;5029610;28;20097;-62
2022/02/08 06:01:10;;;;;;;36.60;7.68;;;14.40;32.50;;;;;;5030928;28;20074;-60
2022/02/08 06:03:37;;;;;;;39.65;8.18;;;14.30;32.60;;;;;;5014434;28;20093;-60
2022/02/08 06:06:04;;;;;;;39.78;7.82;;;14.20;32.60;;;;;;5047119;28;20084;-62
2022/02/08 06:08:30;;;;;;;44.13;7.28;;;14.20;32.70;;;;;;5071364;28;20077;-65
2022/02/08 06:11:02;;;;;;;;;;;14.10;32.70;;;;;;5072942;28;20089;-67
2022/02/08 06:13:30;;;;;;;31.25;7.28;;;14.10;32.90;;;;;;5071117;28;20076;-64
2022/02/08 06:16:02;;;;;;;35.45;7.10;;;14.10;32.90;;;;;;5071326;28;20065;-64
2022/02/08 06:18:30;;;;;;;42.47;7.22;;;14.00;33.00;;;;;;5054531;28;20123;-64
2022/02/08 06:20:57;;;;;;;29.85;7.47;;;14.00;33.00;;;;;;5072558;28;20096;-63
2022/02/08 06:23:24;;;;;;;28.70;6.22;;;14.00;33.10;;;;;;5071567;28;20530;-66
2022/02/08 06:25:50;;;;;;;29.95;6.63;;;14.00;33.10;;;;;;5072223;28;20088;-65
2022/02/08 06:28:18;;;;;;;33.35;6.68;;;14.00;33.00;;;;;;5052805;28;20070;-65
2022/02/08 06:30:47;;;;;;;35.22;6.97;;;13.90;32.80;;;;;;5071872;28;20539;-62
2022/02/08 06:33:14;;;;;;;29.58;6.78;;;13.90;32.60;;;;;;5073109;28;20089;-61
2022/02/08 06:35:41;;;;;;;29.58;6.10;;;13.90;32.50;;;;;;5070662;28;20765;-65
2022/02/08 06:38:11;;;;;;;30.98;5.20;;;13.90;32.30;;;;;;5070515;28;20081;-65
2022/02/08 06:40:39;;;;;;;31.75;5.38;;;13.90;32.30;;;;;;5070008;28;20076;-65
2022/02/08 06:43:06;;;;;;;29.38;4.80;;;13.90;32.30;;;;;;5068732;28;20577;-65
2022/02/08 06:45:33;;;;;;;36.33;6.60;;;13.90;32.40;;;;;;5069464;28;20069;-65
2022/02/08 06:48:02;;;;;;;33.90;5.88;;;13.90;32.20;;;;;;5052239;28;20521;-66
2022/02/08 06:50:29;;;;;;;34.20;5.20;;;13.80;31.90;;;;;;5070391;28;20243;-65
2022/02/08 06:52:55;;;;;;;45.15;6.47;;;13.80;31.90;;;;;;5069084;28;20100;-65
2022/02/08 06:55:24;;;;;;;190.70;16.92;;;13.70;31.70;;;;;;5069471;28;20074;-68
2022/02/08 06:58:09;;;;;;;159.63;13.80;;;13.70;31.20;;;;;;5068865;28;20570;-63
2022/02/08 07:00:39;;;;;;;40.03;4.65;;;13.80;31.10;;;;;;5070555;28;20147;-64
2022/02/08 07:03:07;;;;;;;16.17;2.90;;;13.80;30.60;;;;;;5069228;28;20077;-63
2022/02/08 07:05:34;;;;;;;10.70;2.22;;;13.90;29.40;;;;;;5068689;28;20077;-65
2022/02/08 07:08:00;;;;;;;16.92;2.50;;;14.00;28.10;;;;;;5068053;28;20107;-65
2022/02/08 07:10:28;;;;;;;;;;;14.00;27.50;;;;;;5069988;28;20108;-64
2022/02/08 07:12:55;;;;;;;10.27;1.88;;;14.10;27.10;;;;;;5069672;28;20446;-63
2022/02/08 07:15:22;;;;;;;10.05;1.70;;;14.10;27.00;;;;;;5069120;28;20077;-64
2022/02/08 07:17:48;;;;;;;6.68;1.58;;;14.10;27.30;;;;;;5068725;28;20191;-62
2022/02/08 07:20:16;;;;;;;8.80;1.60;;;14.00;27.30;;;;;;5069723;28;20733;-64
2022/02/08 07:22:43;;;;;;;10.00;1.80;;;14.00;27.40;;;;;;5067810;28;20616;-65
2022/02/08 07:25:10;;;;;;;13.75;2.30;;;14.10;27.40;;;;;;5069159;28;20065;-64
2022/02/08 07:27:37;;;;;;;6.63;1.95;;;14.00;27.70;;;;;;5068798;28;20424;-63
2022/02/08 07:30:10;;;;;;;7.25;1.75;;;14.10;27.60;;;;;;5068817;28;20156;-62
2022/02/08 07:32:38;;;;;;;12.57;2.20;;;14.00;27.50;;;;;;5068345;28;20127;-62
2022/02/08 07:35:31;;;;;;;9.43;1.90;;;14.10;27.50;;;;;;5068651;28;20081;-65
2022/02/08 07:38:08;;;;;;;6.57;1.60;;;14.10;27.10;;;;;;5069124;28;20539;-63
2022/02/08 07:43:04;;;;;;;;;;;14.30;26.00;;;;;;5070330;28;20077;-62
2022/02/08 07:45:31;;;;;;;5.90;1.45;;;14.40;25.70;;;;;;5049629;28;19965;-65
2022/02/08 07:47:58;;;;;;;17.65;2.08;;;14.50;25.60;;;;;;5066978;28;20096;-63
2022/02/08 07:50:25;;;;;;;;;;;14.50;25.50;;;;;;5069755;28;20076;-66
2022/02/08 07:52:52;;;;;;;7.63;2.05;;;14.50;25.50;;;;;;5051254;28;19961;-63
2022/02/08 07:55:20;;;;;;;16.63;2.92;;;14.40;25.70;;;;;;5068556;28;20076;-63
2022/02/08 07:57:47;;;;;;;10.52;3.20;;;14.40;26.10;;;;;;5051398;28;20093;-64
2022/02/08 08:00:14;;;;;;;16.05;6.70;;;14.30;26.30;;;;;;5069536;28;20076;-63
2022/02/08 08:02:40;;;;;;;20.60;7.00;;;14.30;25.80;;;;;;5067926;28;20134;-64
2022/02/08 08:05:07;;;;;;;;;;;14.30;25.80;;;;;;5068800;28;20073;-64
2022/02/08 08:07:34;;;;;;;19.83;7.85;;;14.20;26.10;;;;;;5067506;28;20019;-63
2022/02/08 08:10:02;;;;;;;19.67;9.70;;;14.20;26.30;;;;;;5065843;28;20554;-64
2022/02/08 08:12:30;;;;;;;17.83;8.55;;;14.20;26.70;;;;;;5068123;28;20092;-63
2022/02/08 08:15:04;;;;;;;15.82;7.47;;;14.10;26.40;;;;;;5067022;28;20179;-62
2022/02/08 08:17:53;;;;;;;16.88;7.43;;;14.10;26.10;;;;;;5068847;28;20116;-62
2022/02/08 08:20:19;;;;;;;9.68;5.55;;;14.00;25.80;;;;;;5055328;28;20545;-63
2022/02/08 08:22:45;;;;;;;;;;;14.00;25.90;;;;;;5069882;28;20454;-65
2022/02/08 08:25:12;;;;;;;14.98;4.78;;;13.90;25.60;;;;;;5068410;28;19961;-63
2022/02/08 08:27:38;;;;;;;;;;;13.90;25.90;;;;;;5068508;28;20678;-63
2022/02/08 08:30:05;;;;;;;12.25;3.78;;;13.80;25.60;;;;;;5069130;28;19957;-63
2022/02/08 08:32:32;;;;;;;9.48;4.03;;;13.80;25.60;;;;;;5051100;28;20534;-64
2022/02/08 08:34:58;;;;;;;15.70;4.05;;;13.80;26.00;;;;;;5067878;28;20124;-65
2022/02/08 08:37:24;;;;;;;;;;;13.80;27.10;;;;;;5068185;28;20138;-62
2022/02/08 08:39:53;;;;;;;9.88;3.85;;;13.80;26.50;;;;;;5068075;28;20441;-65
2022/02/08 08:52:43;;;;;;;13.10;5.78;;;13.30;27.70;;;;;;5069477;28;20088;-63
2022/02/08 08:55:11;;;;;;;17.20;6.22;;;13.20;27.80;;;;;;5067837;28;20493;-64
2022/02/08 08:57:38;;;;;;;16.30;6.10;;;13.20;28.10;;;;;;5068825;28;20134;-62
2022/02/08 09:00:07;;;;;;;14.40;6.75;;;13.00;28.30;;;;;;5068796;28;20076;-62
2022/02/08 09:02:34;;;;;;;16.02;6.93;;;12.90;28.30;;;;;;5069110;28;20087;-62
2022/02/08 09:05:03;;;;;;;14.50;6.30;;;12.90;28.60;;;;;;5068656;28;20139;-63
2022/02/08 09:07:30;;;;;;;17.92;6.65;;;12.90;28.60;;;;;;5067553;28;20103;-64
2022/02/08 09:10:00;;;;;;;14.90;5.82;;;12.80;28.80;;;;;;5067238;28;20073;-62
2022/02/08 09:12:49;;;;;;;13.32;5.65;;;12.80;29.10;;;;;;5066477;28;20085;-63
2022/02/08 09:15:46;;;;;;;16.88;6.25;;;12.70;29.10;;;;;;5068084;28;20104;-63
2022/02/08 09:26:33;;;;;;;12.75;5.20;;;12.50;29.80;;;;;;5071377;28;20105;-66
2022/02/08 09:29:05;;;;;;;12.70;5.55;;;12.50;29.80;;;;;;5071416;28;20607;-64
2022/02/08 09:31:33;;;;;;;13.18;5.03;;;12.40;29.90;;;;;;5069340;28;20077;-64
2022/02/08 09:34:00;;;;;;;12.90;5.53;;;12.30;30.10;;;;;;5071681;28;20162;-65
2022/02/08 09:36:26;;;;;;;;;;;12.30;30.20;;;;;;5072370;28;20085;-64
2022/02/08 09:38:54;;;;;;;16.02;4.97;;;12.20;30.30;;;;;;5070865;28;20403;-63
2022/02/08 09:41:22;;;;;;;18.70;5.15;;;12.20;30.40;;;;;;5070733;28;20123;-62
2022/02/08 09:43:52;;;;;;;16.70;5.68;;;12.10;30.60;;;;;;5069812;28;20085;-62
2022/02/08 09:46:19;;;;;;;13.30;5.38;;;12.10;30.80;;;;;;5070966;28;20126;-63
2022/02/08 09:48:55;;;;;;;13.38;4.72;;;12.10;31.00;;;;;;5070537;28;20522;-62
2022/02/08 09:51:22;;;;;;;14.55;4.57;;;12.00;31.00;;;;;;5073101;28;20133;-63
2022/02/08 09:53:55;;;;;;;10.32;4.43;;;12.00;31.20;;;;;;5070452;28;20454;-61
2022/02/08 09:56:23;;;;;;;13.40;4.57;;;12.00;31.20;;;;;;5070451;28;20128;-62
2022/02/08 09:58:51;;;;;;;15.55;4.13;;;12.00;31.10;;;;;;5071548;28;20093;-62
2022/02/08 10:01:23;;;;;;;11.98;3.80;;;11.90;31.00;;;;;;5069239;28;20107;-62
2022/02/08 10:03:57;;;;;;;10.75;4.05;;;11.90;30.90;;;;;;5070836;28;20077;-66
2022/02/08 10:06:29;;;;;;;13.85;4.22;;;11.90;30.90;;;;;;5068916;28;20126;-63
2022/02/08 10:09:00;;;;;;;12.23;4.72;;;11.90;31.20;;;;;;5071571;28;20077;-63
2022/02/08 10:11:30;;;;;;;12.65;4.60;;;11.90;31.10;;;;;;5070303;28;20093;-63
2022/02/08 10:14:17;;;;;;;10.75;4.18;;;11.90;31.50;;;;;;5069304;28;20092;-62
2022/02/08 10:22:34;;;;;;;11.88;4.10;;;11.70;31.30;;;;;;5070766;28;20469;-62
2022/02/08 10:25:03;;;;;;;13.05;4.05;;;11.70;31.30;;;;;;5070508;28;20103;-64
2022/02/08 10:27:36;;;;;;;16.65;4.85;;;11.70;31.30;;;;;;5069582;28;20073;-62
2022/02/08 10:38:57;;;;;;;13.10;3.63;;;11.70;31.60;;;;;;5071143;28;20175;-62
2022/02/08 10:41:24;;;;;;;17.55;3.72;;;11.70;31.90;;;;;;5068998;28;20073;-65
2022/02/08 10:44:03;;;;;;;20.88;3.60;;;11.60;31.70;;;;;;5069057;28;20134;-61
2022/02/08 10:46:30;;;;;;;12.45;3.88;;;11.50;31.50;;;;;;5070472;28;20081;-62
2022/02/08 10:49:03;;;;;;;11.77;3.67;;;11.50;31.60;;;;;;5069467;28;20535;-61
2022/02/08 10:51:34;;;;;;;7.75;3.55;;;11.60;31.70;;;;;;5070352;28;20099;-64
2022/02/08 10:54:07;;;;;;;9.32;3.10;;;11.70;31.80;;;;;;5069391;28;20099;-62
2022/02/08 10:56:36;;;;;;;14.70;3.13;;;11.60;31.00;;;;;;5069247;28;20069;-62
2022/02/08 10:59:41;;;;;;;6.80;2.60;;;11.70;31.20;;;;;;5070508;28;20100;-63
2022/02/08 11:02:14;;;;;;;7.50;2.50;;;11.70;30.70;;;;;;5065362;28;20077;-63
2022/02/08 11:10:23;;;;;;;8.10;2.20;;;11.60;30.40;;;;;;5030821;28;20451;-62
2022/02/08 11:13:19;;;;;;;4.47;1.95;;;11.60;30.40;;;;;;5030478;28;20100;-63
2022/02/08 11:20:48;;;;;;;11.15;2.40;;;11.40;30.90;;;;;;5048269;28;20155;-63
2022/02/08 11:23:31;;;;;;;6.75;1.55;;;11.50;30.70;;;;;;5013530;28;20540;-63
2022/02/08 11:25:58;;;;;;;7.05;1.80;;;11.50;30.20;;;;;;5030921;28;20089;-61
2022/02/08 11:28:37;;;;;;;7.35;1.58;;;11.50;30.00;;;;;;5031272;28;20526;-64
2022/02/08 11:31:20;;;;;;;3.08;1.15;;;11.50;29.70;;;;;;5029762;28;20425;-63
2022/02/08 11:38:59;;;;;;;8.50;1.63;;;11.50;29.20;;;;;;5047380;28;20180;-62
2022/02/08 11:53:29;;;;;;;15.60;4.13;;;11.40;29.00;;;;;;5069712;28;20084;-62
2022/02/08 11:59:46;;;;;;;15.10;4.28;;;11.50;28.90;;;;;;5068686;28;20584;-62
2022/02/08 12:02:01;;;;;;;11.93;4.43;;;11.50;29.70;;;;;;5057922;28;20168;-61
2022/02/08 12:09:39;;;;;;;9.90;3.42;;;11.20;30.00;;;;;;5069192;28;20079;-64
2022/02/08 13:03:46;;;;;;;24.13;5.78;;;10.50;35.40;;;;;;5072812;28;20481;-63
2022/02/08 13:15:01;;;;;;;21.42;5.88;;;10.30;37.20;;;;;;5073493;28;21141;-63
2022/02/08 13:20:15;;;;;;;23.10;6.32;;;10.30;37.20;;;;;;5071362;28;20151;-66
2022/02/08 14:06:34;;;;;;;25.08;8.25;;;9.80;40.00;;;;;;5070449;28;20067;-64
2022/02/08 14:14:55;;;;;;;38.00;10.63;;;9.80;39.90;;;;;;5070636;28;20135;-62
2022/02/08 14:17:34;;;;;;;37.60;10.57;;;9.80;40.20;;;;;;5069282;28;20104;-64
2022/02/08 14:25:44;;;;;;;31.13;10.13;;;9.70;39.60;;;;;;5071049;28;20188;-63
2022/02/08 15:08:01;;;;;;;;;;;9.60;41.10;;;;;;5070033;28;20156;-64
2022/02/08 15:10:42;;;;;;;61.85;13.90;;;9.60;40.90;;;;;;5069117;28;19987;-64
2022/02/08 15:13:11;;;;;;;68.00;13.30;;;9.70;40.60;;;;;;5069601;28;20173;-63
2022/02/08 15:18:08;;;;;;;43.60;11.32;;;9.90;40.60;;;;;;5051470;28;20567;-63
2022/02/08 15:20:34;;;;;;;52.55;11.43;;;10.00;40.90;;;;;;5070051;28;20523;-60
2022/02/08 15:23:03;;;;;;;;;;;10.10;41.00;;;;;;5068489;28;20095;-60
2022/02/08 15:25:30;;;;;;;50.83;11.43;;;10.20;40.70;;;;;;5070274;28;20035;-62
2022/02/08 15:28:04;;;;;;;47.10;10.77;;;10.30;40.40;;;;;;5068998;28;20537;-62
2022/02/08 15:30:33;;;;;;;44.05;10.85;;;10.40;39.70;;;;;;5068220;28;20107;-63
2022/02/08 15:33:02;;;;;;;43.35;11.23;;;10.50;40.40;;;;;;5050483;28;20069;-64
2022/02/08 15:35:29;;;;;;;45.33;9.93;;;10.60;41.30;;;;;;5067272;28;20130;-58
2022/02/08 15:37:55;;;;;;;36.67;11.15;;;10.70;40.30;;;;;;5051263;28;20073;-61
2022/02/08 15:40:23;;;;;;;46.45;11.35;;;10.90;38.50;;;;;;5068680;28;20130;-62
2022/02/08 15:42:50;;;;;;;57.05;13.32;;;11.00;37.90;;;;;;5068676;28;20101;-61
2022/02/08 15:47:43;;;;;;;;;;;11.30;36.90;;;;;;5070480;28;20080;-60
2022/02/08 15:50:16;;;;;;;42.78;10.95;;;11.50;35.60;;;;;;5069022;28;19964;-62
2022/02/08 15:55:27;;;;;;;35.47;8.70;;;11.90;33.20;;;;;;5068301;28;20085;-62
2022/02/08 15:58:08;;;;;;;26.40;8.60;;;12.10;32.00;;;;;;5068246;28;20077;-60
2022/02/08 16:08:57;;;;;;;32.08;8.52;;;13.00;30.70;;;;;;5069918;28;20103;-62
2022/02/08 16:14:35;;;;;;;51.85;8.85;;;13.40;30.80;;;;;;5059281;28;20154;-61
2022/02/08 16:19:47;;;;;;;43.13;8.95;;;13.90;31.10;;;;;;5050232;28;20088;-63
2022/02/08 16:24:51;;;;;;;;;;;14.30;30.00;;;;;;5067138;28;20085;-63
2022/02/08 16:27:29;;;;;;;31.73;6.90;;;14.60;30.00;;;;;;5067093;28;19996;-62
2022/02/08 16:46:15;;;;;;;32.40;6.18;;;17.30;26.50;;;;;;5071212;28;20080;-63
2022/02/08 16:57:08;;;;;;;22.35;4.32;;;19.20;24.60;;;;;;5071761;28;20069;-61
2022/02/08 17:01:51;;;;;;;21.38;4.40;;;20.10;23.10;;;;;;5071601;28;20148;-63
2022/02/08 17:04:18;;;;;;;21.15;4.10;;;20.60;23.10;;;;;;5053562;28;20083;-60
2022/02/08 17:06:44;;;;;;;19.80;4.78;;;21.00;21.80;;;;;;5069186;28;20097;-64
2022/02/08 17:09:15;;;;;;;20.17;3.83;;;21.20;21.60;;;;;;5069687;28;20612;-64
2022/02/08 17:47:19;;;;;;;13.20;1.60;;;27.30;16.30;;;;;;5071760;28;20084;-63
2022/02/08 17:49:46;;;;;;;7.53;1.45;;;27.50;16.10;;;;;;5070433;28;20089;-64
2022/02/08 17:52:12;;;;;;;14.32;1.77;;;28.10;16.00;;;;;;5071344;28;21073;-64
2022/02/08 17:54:39;;;;;;;6.38;1.90;;;28.50;15.80;;;;;;5071646;28;20550;-62
2022/02/08 17:57:05;;;;;;;8.98;1.40;;;28.20;15.70;;;;;;5070065;28;20104;-63
2022/02/08 17:59:35;;;;;;;9.27;1.58;;;28.20;15.80;;;;;;5070124;28;20524;-65
2022/02/08 18:02:01;;;;;;;11.18;1.55;;;28.30;16.40;;;;;;5070382;28;20081;-63
2022/02/08 18:04:27;;;;;;;14.68;2.13;;;28.30;16.20;;;;;;5070742;28;20126;-63
2022/02/08 18:06:54;;;;;;;16.25;2.10;;;28.90;16.30;;;;;;5068724;28;20088;-61
2022/02/08 18:09:21;;;;;;;61.97;5.55;;;29.40;16.60;;;;;;5068169;28;20615;-63
2022/02/08 18:11:47;;;;;;;350.13;22.60;;;29.70;16.40;;;;;;5067483;28;20103;-62
2022/02/08 18:14:19;;;;;;;7.38;1.90;;;29.90;16.90;;;;;;5069348;28;20091;-62
2022/02/08 18:17:01;;;;;;;13.07;1.45;;;29.90;17.00;;;;;;5054360;28;20068;-62
2022/02/08 18:19:32;;;;;;;22.10;2.03;;;30.60;16.80;;;;;;5054229;28;20099;-62
2022/02/08 18:22:21;;;;;;;467.20;41.25;;;31.10;17.00;;;;;;5053765;28;20097;-62
2022/02/08 18:25:24;;;;;;;16.33;1.87;;;31.00;17.20;;;;;;5071521;28;20125;-62
2022/02/08 18:54:46;;;;;;;8.70;1.00;;;33.90;13.50;;;;;;5070432;28;20081;-64
2022/02/08 19:14:18;;;;;;;37.50;5.20;;;32.70;16.40;;;;;;5054606;28;20102;-62
2022/02/08 19:22:02;;;;;;;8.40;2.42;;;30.20;15.40;;;;;;5070901;28;20442;-61
2022/02/08 19:24:28;;;;;;;5.32;1.42;;;29.70;15.70;;;;;;5068962;28;20565;-60
2022/02/08 19:26:58;;;;;;;10.65;1.50;;;29.30;16.30;;;;;;5070434;28;20093;-59
2022/02/08 19:29:26;;;;;;;4.63;0.70;;;29.30;16.40;;;;;;5068602;28;20068;-63
2022/02/08 19:31:53;;;;;;;5.20;0.93;;;28.80;15.60;;;;;;5063284;28;20096;-61
2022/02/08 19:34:20;;;;;;;4.35;0.70;;;28.40;17.30;;;;;;5051763;28;20077;-62
2022/02/08 19:36:49;;;;;;;9.00;0.90;;;28.00;15.80;;;;;;5051571;28;20076;-61
2022/02/08 19:39:18;;;;;;;5.95;1.00;;;27.50;17.60;;;;;;5050895;28;20131;-63
2022/02/08 19:41:44;;;;;;;6.25;0.90;;;27.50;16.80;;;;;;5067687;28;20100;-63
2022/02/08 19:44:11;;;;;;;12.07;1.35;;;27.70;18.10;;;;;;5064693;28;20196;-63
2022/02/08 19:46:38;;;;;;;4.10;0.75;;;27.70;15.80;;;;;;5061671;28;20875;-61
2022/02/08 19:49:07;;;;;;;5.97;1.77;;;27.30;15.80;;;;;;5068929;28;20499;-63
2022/02/08 19:51:38;;;;;;;9.25;1.40;;;27.10;16.70;;;;;;5068914;28;20497;-62
2022/02/08 19:54:08;;;;;;;15.65;2.65;;;27.10;17.30;;;;;;5061033;28;20079;-61
2022/02/08 19:56:44;;;;;;;4.28;1.00;;;27.40;16.80;;;;;;5067712;28;20105;-62
2022/02/08 19:59:14;;;;;;;3.70;1.10;;;27.10;16.50;;;;;;5068065;28;20075;-61
2022/02/08 20:01:45;;;;;;;3.63;0.90;;;26.80;16.20;;;;;;5067950;28;20222;-61
2022/02/08 20:04:21;;;;;;;1.92;1.20;;;26.70;15.90;;;;;;5067998;28;20688;-62
2022/02/08 20:06:47;;;;;;;7.03;1.27;;;26.50;17.40;;;;;;5067283;28;20092;-61
2022/02/08 20:09:15;;;;;;;3.65;0.80;;;26.70;17.10;;;;;;5066851;28;20138;-63
2022/02/08 20:11:43;;;;;;;4.97;0.70;;;26.80;16.20;;;;;;5064258;28;20169;-61
2022/02/08 20:14:12;;;;;;;3.45;0.80;;;26.40;15.60;;;;;;5068464;28;20069;-60
2022/02/08 20:16:39;;;;;;;3.75;1.17;;;26.30;15.50;;;;;;5069701;28;20072;-60
2022/02/08 20:19:08;;;;;;;9.15;1.38;;;26.20;15.60;;;;;;5067645;28;20112;-60
2022/02/08 20:21:36;;;;;;;6.40;1.98;;;26.10;15.70;;;;;;5069828;28;20554;-63
2022/02/08 20:24:05;;;;;;;1.55;0.80;;;26.10;17.20;;;;;;5068357;28;20101;-64
2022/02/08 20:29:08;;;;;;;3.37;0.97;;;26.30;15.70;;;;;;5069020;28;20088;-61
2022/02/08 20:31:34;;;;;;;2.17;0.70;;;26.30;15.90;;;;;;5051491;28;20519;-65
2022/02/08 20:34:01;;;;;;;8.18;1.10;;;26.30;16.10;;;;;;5067828;28;20122;-59
2022/02/08 20:36:27;;;;;;;4.10;0.68;;;26.20;16.30;;;;;;5048417;28;20490;-63
2022/02/08 20:38:54;;;;;;;7.05;1.42;;;26.20;16.60;;;;;;5067839;28;20107;-61
2022/02/08 20:41:21;;;;;;;4.45;1.63;;;26.30;16.90;;;;;;5068768;28;20077;-60